Time;durP1;ratioP1;P1;durP2;ratioP2;P2;SDS_P1;SDS_P2;PMS_P1;PMS_P2;Temp;Humidity;BMP_temperature;BMP_pressure;BME280_temperature;BME280_humidity;BME280_pressure;Samples;Min_cycle;Max_cycle;Signal;HPM_P1;HPM_P2
2022/09/20 00:00:33;;;;;;;2.33;1.70;;;;;;;-141.97;53.20;47524.84;4994092;28;20159;-84
2022/09/20 00:02:59;;;;;;;2.23;1.63;;;;;;;-141.97;52.95;47667.06;4992762;28;20182;-83
2022/09/20 00:05:24;;;;;;;2.60;1.80;;;;;;;-141.97;52.99;47499.84;4993032;28;20258;-84
2022/09/20 00:07:49;;;;;;;2.40;1.60;;;;;;;-141.97;53.01;47536.38;4993433;28;20167;-84
2022/09/20 00:10:15;;;;;;;7.70;1.70;;;;;;;-141.97;53.15;47282.69;4992478;28;20175;-85
2022/09/20 00:12:40;;;;;;;3.30;1.50;;;;;;;-141.97;53.82;47509.47;4993002;28;20566;-85
2022/09/20 00:15:06;;;;;;;2.70;1.63;;;;;;;-141.97;53.93;47524.84;4993453;28;20163;-83
2022/09/20 00:17:32;;;;;;;2.20;1.60;;;;;;;-141.97;54.11;47521.00;5007936;28;20231;-83
2022/09/20 00:19:57;;;;;;;2.40;1.60;;;;;;;-141.97;54.05;47447.97;4992813;28;20647;-84
2022/09/20 00:22:22;;;;;;;3.27;1.70;;;;;;;-141.97;54.10;47544.06;4992921;28;20175;-82
2022/09/20 00:24:48;;;;;;;2.03;1.50;;;;;;;-141.97;54.33;47521.00;4993090;28;20575;-82
2022/09/20 00:27:13;;;;;;;2.23;1.63;;;;;;;-141.97;54.53;47519.06;5004722;28;20191;-82
2022/09/20 00:29:39;;;;;;;2.47;1.57;;;;;;;-141.97;54.60;47530.59;5012322;28;20167;-82
2022/09/20 00:32:05;;;;;;;3.30;1.70;;;;;;;-141.97;54.40;47472.94;5012803;28;20539;-82
2022/09/20 00:37:14;;;;;;;2.03;1.47;;;;;;;-141.97;53.71;47517.16;5012359;28;20229;-84
2022/09/20 00:39:39;;;;;;;2.27;1.50;;;;;;;-141.97;53.79;47546.00;5012779;28;20198;-82
2022/09/20 00:42:05;;;;;;;2.07;1.30;;;;;;;-141.97;53.90;47649.78;5012437;28;20171;-82
2022/09/20 00:44:55;;;;;;;1.60;1.40;;;;;;;-141.97;54.13;47517.16;5012270;28;20217;-83
2022/09/20 00:47:44;;;;;;;2.10;1.40;;;;;;;-141.97;54.05;47536.38;5012204;28;20151;-82
2022/09/20 00:50:18;;;;;;;2.10;1.50;;;;;;;-141.97;53.71;47534.44;5012497;28;20163;-83
2022/09/20 00:52:50;;;;;;;4.70;1.60;;;;;;;-141.97;53.82;47532.53;5012726;28;20162;-83
2022/09/20 00:55:15;;;;;;;1.90;1.50;;;;;;;-141.97;54.24;47507.53;5012279;28;20179;-84
2022/09/20 00:57:44;;;;;;;2.20;1.60;;;;;;;-141.97;54.58;47492.16;5032991;28;20201;-84
2022/09/20 01:00:10;;;;;;;2.67;1.50;;;;;;;-141.97;54.76;47549.84;5032167;28;20218;-83
2022/09/20 01:02:44;;;;;;;2.53;1.53;;;;;;;-141.97;55.28;47494.09;5032129;28;20217;-84
2022/09/20 01:05:12;;;;;;;1.80;1.30;;;;;;;-141.97;55.41;47547.91;5031083;28;20170;-84
2022/09/20 01:07:39;;;;;;;1.80;1.50;;;;;;;-141.97;55.90;47524.84;5032045;28;20159;-84
2022/09/20 01:10:05;;;;;;;2.87;1.40;;;;;;;-141.97;56.35;47534.44;5032324;28;20165;-84
2022/09/20 01:12:34;;;;;;;2.77;1.40;;;;;;;-141.97;56.97;47492.16;5032284;28;20151;-84
2022/09/20 01:15:04;;;;;;;6.57;1.50;;;;;;;-141.97;57.67;47522.91;5031711;28;20163;-84
2022/09/20 01:17:33;;;;;;;4.13;1.60;;;;;;;-141.97;57.66;47546.00;5031371;28;20229;-84
2022/09/20 01:20:23;;;;;;;1.93;1.50;;;;;;;-141.97;58.21;47557.53;5031674;28;20177;-84
2022/09/20 01:23:00;;;;;;;2.40;1.27;;;;;;;-141.97;58.61;47530.59;5031705;28;20158;-84
2022/09/20 01:25:50;;;;;;;3.50;1.43;;;;;;;-141.97;58.42;47515.22;5031213;28;20181;-83
2022/09/20 01:28:16;;;;;;;3.03;1.27;;;;;;;-141.97;58.51;47544.06;5031604;28;20703;-84
2022/09/20 01:31:05;;;;;;;2.57;1.40;;;;;;;-141.97;58.61;47530.59;5031917;28;20169;-84
2022/09/20 01:33:52;;;;;;;2.27;1.30;;;;;;;-141.97;58.41;47455.66;5031159;28;20186;-82
2022/09/20 01:36:25;;;;;;;3.20;1.50;;;;;;;-141.97;58.48;47407.59;5031704;28;20171;-83
2022/09/20 01:39:19;;;;;;;2.43;1.30;;;;;;;-141.97;58.33;47492.16;5031545;28;20193;-83
2022/09/20 01:41:52;;;;;;;1.73;1.30;;;;;;;-141.97;58.44;47438.34;5033707;28;20177;-83
2022/09/20 01:44:29;;;;;;;2.20;1.40;;;;;;;-141.97;58.12;47561.38;5035021;28;20170;-82
2022/09/20 01:47:04;;;;;;;1.30;1.20;;;;;;;-141.97;58.29;47538.28;5026337;28;20198;-83
2022/09/20 01:49:56;;;;;;;1.97;1.00;;;;;;;-141.97;58.18;47501.78;5014920;28;20170;-82
2022/09/20 01:52:35;;;;;;;2.00;1.20;;;;;;;-141.97;58.36;47524.84;5014773;28;20237;-83
2022/09/20 01:55:36;;;;;;;1.13;1.00;;;;;;;-141.97;57.78;47509.47;5015590;28;20520;-83
2022/09/20 01:58:16;;;;;;;1.67;1.10;;;;;;;-141.97;57.50;47592.13;4973770;28;20220;-83
2022/09/20 02:00:57;;;;;;;2.07;1.20;;;;;;;-141.97;57.58;47507.53;4973646;28;20172;-81
2022/09/20 02:03:31;;;;;;;1.17;0.97;;;;;;;-141.97;57.78;47505.63;4973884;28;20188;-82
2022/09/20 02:06:18;;;;;;;2.23;1.30;;;;;;;-141.97;58.10;47549.84;4973851;28;20176;-82
2022/09/20 02:09:03;;;;;;;1.70;1.13;;;;;;;-141.97;58.73;47513.31;4972745;28;20192;-81
2022/09/20 02:11:44;;;;;;;1.30;1.13;;;;;;;-141.97;58.21;47542.16;4973472;28;20232;-82
2022/09/20 02:14:40;;;;;;;1.70;1.20;;;;;;;-141.97;57.86;47515.22;4973940;28;20168;-83
2022/09/20 02:17:17;;;;;;;1.40;1.20;;;;;;;-141.97;57.69;47530.59;4973611;28;20244;-84
2022/09/20 02:19:50;;;;;;;1.90;1.37;;;;;;;-141.97;57.50;47511.38;4957279;28;20247;-85
2022/09/20 02:22:28;;;;;;;2.90;1.20;;;;;;;-141.97;57.18;47542.16;4974066;28;20184;-85
2022/09/20 02:25:17;;;;;;;1.40;1.30;;;;;;;-141.97;57.28;47534.44;4975276;28;20178;-85
2022/09/20 02:28:04;;;;;;;3.70;1.53;;;;;;;-141.97;57.23;47530.59;4993983;28;20690;-83
2022/09/20 02:30:44;;;;;;;1.90;1.37;;;;;;;-141.97;57.00;47551.75;4993868;28;20621;-84
2022/09/20 02:33:37;;;;;;;1.73;1.50;;;;;;;-141.97;56.07;47603.66;4994320;28;20197;-83
2022/09/20 02:36:16;;;;;;;2.83;1.50;;;;;;;-141.97;55.76;47574.81;5034310;28;20642;-83
2022/09/20 02:39:06;;;;;;;2.50;1.77;;;;;;;-141.97;55.35;47519.06;5033295;28;20197;-83
2022/09/20 02:41:45;;;;;;;1.90;1.70;;;;;;;-141.97;55.14;47536.38;5035091;28;20176;-83
2022/09/20 02:44:21;;;;;;;2.00;1.60;;;;;;;-141.97;55.44;47488.31;5034477;28;20601;-83
2022/09/20 02:47:04;;;;;;;1.90;1.63;;;;;;;-141.97;55.37;47561.38;5034084;28;20613;-82
2022/09/20 02:50:14;;;;;;;1.73;1.57;;;;;;;-141.97;55.36;47569.06;5033612;28;20173;-82
2022/09/20 02:52:57;;;;;;;2.83;2.10;;;;;;;-141.97;55.52;47526.75;4991710;28;20274;-82
2022/09/20 02:55:43;;;;;;;3.00;2.27;;;;;;;-141.97;55.83;47509.47;4986696;28;20188;-82
2022/09/20 02:58:18;;;;;;;2.50;2.10;;;;;;;-141.97;56.24;47540.22;4974205;28;20262;-82
2022/09/20 03:00:52;;;;;;;2.70;2.30;;;;;;;-141.97;56.31;47534.44;4973672;28;20171;-81
2022/09/20 03:03:56;;;;;;;2.50;2.20;;;;;;;-141.97;56.53;47538.28;4973830;28;20171;-82
2022/09/20 03:06:46;;;;;;;4.53;2.60;;;;;;;-141.97;56.59;47534.44;4953393;29;20199;-83
2022/09/20 03:09:20;;;;;;;3.20;2.50;;;;;;;-141.97;57.00;47549.84;4953834;29;20180;-83
2022/09/20 03:12:21;;;;;;;4.83;2.50;;;;;;;-141.97;57.02;47546.00;4954538;29;20231;-82
2022/09/20 03:15:17;;;;;;;3.57;2.60;;;;;;;-141.97;57.41;47522.91;4897063;29;20194;-83
2022/09/20 03:18:10;;;;;;;3.27;2.53;;;;;;;-141.97;57.54;47549.84;4896760;29;20655;-83
2022/09/20 03:20:42;;;;;;;2.80;2.50;;;;;;;-141.97;58.12;47530.59;4897271;29;20205;-82
2022/09/20 03:23:25;;;;;;;3.03;2.63;;;;;;;-141.97;58.31;47522.91;4896991;29;20182;-82
2022/09/20 03:26:26;;;;;;;3.53;2.73;;;;;;;-141.97;58.22;47522.91;4903568;29;20363;-82
2022/09/20 03:29:14;;;;;;;3.70;2.60;;;;;;;-141.97;58.97;47509.47;4935876;29;20173;-81
2022/09/20 03:31:58;;;;;;;4.83;2.70;;;;;;;-141.97;58.75;47549.84;4935479;29;20193;-84
2022/09/20 03:34:59;;;;;;;4.80;2.50;;;;;;;-141.97;59.05;47547.91;4934639;29;20165;-82
2022/09/20 03:37:36;;;;;;;3.60;2.60;;;;;;;-141.97;58.44;47515.22;4933692;29;20689;-82
2022/09/20 03:40:43;;;;;;;4.20;2.83;;;;;;;-141.97;58.48;47546.00;4940592;29;20195;-83
2022/09/20 03:43:41;;;;;;;2.90;2.30;;;;;;;-141.97;58.66;47530.59;4916027;29;20221;-83
2022/09/20 03:46:25;;;;;;;5.13;2.53;;;;;;;-141.97;58.42;47534.44;4933938;29;20661;-83
2022/09/20 03:49:24;;;;;;;2.80;2.40;;;;;;;-141.97;58.07;47534.44;4934979;29;20209;-82
2022/09/20 03:52:02;;;;;;;3.90;2.47;;;;;;;-141.97;58.19;47567.13;4926815;29;20676;-83
2022/09/20 03:54:30;;;;;;;3.93;2.63;;;;;;;-141.97;58.38;47569.06;4917506;29;20194;-83
2022/09/20 03:57:18;;;;;;;7.97;3.23;;;;;;;-141.97;58.52;47553.69;4914408;29;20194;-81
2022/09/20 04:00:02;;;;;;;4.07;2.80;;;;;;;-141.97;58.42;47474.88;4914478;29;20290;-82
2022/09/20 04:02:39;;;;;;;4.07;2.93;;;;;;;-141.97;58.68;47572.91;4914545;29;20595;-83
2022/09/20 04:05:05;;;;;;;5.83;3.03;;;;;;;-141.97;58.38;47538.28;4914672;29;20198;-83
2022/09/20 04:07:59;;;;;;;3.60;2.50;;;;;;;-141.97;57.63;47542.16;4915713;29;20317;-82
2022/09/20 04:10:45;;;;;;;2.53;2.00;;;;;;;-141.97;57.17;47549.84;4913191;29;20245;-84
2022/09/20 04:13:34;;;;;;;2.97;2.20;;;;;;;-141.97;56.59;47561.38;4880668;29;20330;-84
2022/09/20 04:16:16;;;;;;;2.73;2.13;;;;;;;-141.97;56.75;47522.91;4898815;29;20628;-83
2022/09/20 04:19:03;;;;;;;3.53;2.30;;;;;;;-141.97;56.70;47555.59;4896403;28;20210;-82
2022/09/20 04:21:45;;;;;;;3.77;2.67;;;;;;;-141.97;56.81;47657.47;4972551;28;20195;-86
2022/09/20 04:24:32;;;;;;;3.97;2.50;;;;;;;-141.97;56.98;47507.53;5009488;28;20651;-86
2022/09/20 04:27:37;;;;;;;3.37;2.27;;;;;;;-141.97;57.11;47563.28;4994900;28;20162;-85
2022/09/20 04:30:14;;;;;;;4.10;2.60;;;;;;;-141.97;57.45;47511.38;5010762;28;20612;-84
2022/09/20 04:33:02;;;;;;;3.73;2.73;;;;;;;-141.97;57.30;47544.06;5010339;28;20200;-85
2022/09/20 04:39:02;;;;;;;3.37;2.50;;;;;;;-141.97;56.98;47480.63;5010937;28;20722;-84
2022/09/20 04:42:08;;;;;;;3.73;2.73;;;;;;;-141.97;57.03;47517.16;5010542;28;20190;-84
2022/09/20 04:44:39;;;;;;;5.57;3.03;;;;;;;-141.97;56.69;47455.66;5020829;28;20185;-85
2022/09/20 04:47:30;;;;;;;5.80;3.30;;;;;;;-141.97;56.13;47530.59;5030134;28;20182;-84
2022/09/20 04:50:10;;;;;;;4.03;3.03;;;;;;;-141.97;56.13;47522.91;5031314;28;20165;-83
2022/09/20 04:53:11;;;;;;;5.40;2.90;;;;;;;-141.97;56.22;47511.38;5030033;28;20646;-85
2022/09/20 04:55:45;;;;;;;29.23;2.83;;;;;;;-141.97;56.56;47538.28;5012570;28;20739;-82
2022/09/20 04:58:54;;;;;;;4.50;2.57;;;;;;;-141.97;56.61;47534.44;5025510;28;20208;-83
2022/09/20 05:01:31;;;;;;;3.43;2.70;;;;;;;-141.97;56.54;47540.22;5029971;28;20197;-83
2022/09/20 05:04:21;;;;;;;6.03;2.97;;;;;;;-141.97;56.40;47569.06;5024963;28;20175;-83
2022/09/20 05:07:11;;;;;;;3.07;2.50;;;;;;;-141.97;55.96;47521.00;5012275;28;20198;-84
2022/09/20 05:09:49;;;;;;;7.03;2.97;;;;;;;-141.97;55.78;47521.00;5012979;28;20167;-82
2022/09/20 05:12:34;;;;;;;5.03;3.27;;;;;;;-141.97;55.59;47524.84;5013023;28;20170;-81
2022/09/20 05:15:27;;;;;;;4.20;2.50;;;;;;;-141.97;55.37;47549.84;5024360;28;20174;-82
2022/09/20 05:18:09;;;;;;;4.33;2.70;;;;;;;-141.97;54.89;47563.28;5037411;28;20230;-81
2022/09/20 05:20:51;;;;;;;3.40;2.70;;;;;;;-141.97;55.13;47563.28;5036369;28;20177;-81
2022/09/20 05:23:40;;;;;;;5.63;2.87;;;;;;;-141.97;54.47;47505.63;5035011;28;20180;-82
2022/09/20 05:26:11;;;;;;;3.00;2.40;;;;;;;-141.97;53.76;47503.69;5016363;28;20206;-81
2022/09/20 05:28:37;;;;;;;4.70;3.23;;;;;;;-141.97;53.70;47534.44;5016112;28;20599;-81
2022/09/20 05:31:13;;;;;;;5.30;2.70;;;;;;;-141.97;53.85;47519.06;5016614;28;20167;-81
2022/09/20 05:33:53;;;;;;;5.10;2.90;;;;;;;-141.97;54.25;47549.84;5016954;28;20544;-81
2022/09/20 05:36:37;;;;;;;5.53;3.20;;;;;;;-141.97;54.14;47553.69;5036152;28;20248;-82
2022/09/20 05:39:30;;;;;;;4.60;3.30;;;;;;;-141.97;54.45;47515.22;5036421;28;20229;-82
2022/09/20 05:42:17;;;;;;;3.37;2.53;;;;;;;-141.97;54.52;47547.91;5003571;28;20230;-83
2022/09/20 05:45:16;;;;;;;3.23;2.93;;;;;;;-141.97;54.67;47540.22;5015171;28;20201;-83
2022/09/20 05:47:58;;;;;;;3.50;3.10;;;;;;;-141.97;54.92;47549.84;5022219;28;20576;-83
2022/09/20 05:50:26;;;;;;;4.27;3.07;;;;;;;-141.97;55.06;47559.44;5020346;28;20163;-84
2022/09/20 05:52:58;;;;;;;5.13;3.23;;;;;;;-141.97;54.83;47530.59;5031075;28;20196;-85
2022/09/20 05:55:54;;;;;;;3.57;2.80;;;;;;;-141.97;55.01;47542.16;5022286;28;20182;-82
2022/09/20 05:58:32;;;;;;;4.70;3.60;;;;;;;-141.97;54.99;47563.28;5015966;28;20233;-83
2022/09/20 06:01:05;;;;;;;5.20;3.63;;;;;;;-141.97;54.54;47544.06;5015192;28;20634;-83
2022/09/20 06:03:40;;;;;;;7.47;3.53;;;;;;;-141.97;53.56;47634.41;5027541;28;20188;-84
2022/09/20 06:06:29;;;;;;;5.83;4.23;;;;;;;-141.97;53.03;47563.28;5014462;28;20178;-81
2022/09/20 06:09:06;;;;;;;7.97;4.83;;;;;;;-141.97;52.79;47497.94;5014677;28;20170;-83
2022/09/20 06:12:12;;;;;;;7.67;5.27;;;;;;;-141.97;52.23;47519.06;5014510;28;20194;-82
2022/09/20 06:14:47;;;;;;;7.70;5.50;;;;;;;-141.97;51.59;47515.22;5014602;28;20179;-83
2022/09/20 06:17:37;;;;;;;5.43;4.07;;;;;;;-141.97;51.01;47561.38;5014560;28;20225;-82
2022/09/20 06:20:25;;;;;;;4.43;3.53;;;;;;;-141.97;50.14;47542.16;5014465;28;20171;-84
2022/09/20 06:22:55;;;;;;;8.47;6.10;;;;;;;-141.97;49.84;47449.88;5018086;28;20240;-82
2022/09/20 06:25:36;;;;;;;13.47;4.20;;;;;;;-141.97;49.91;47461.41;5015052;28;20674;-83
2022/09/20 06:28:47;;;;;;;5.83;4.67;;;;;;;-141.97;49.48;47688.22;5014477;28;20161;-83
2022/09/20 06:31:14;;;;;;;9.87;4.10;;;;;;;-141.97;49.80;47488.31;4992929;28;20191;-83
2022/09/20 06:33:51;;;;;;;8.00;4.80;;;;;;;-141.97;50.17;47515.22;5005586;28;20198;-83
2022/09/20 06:42:09;;;;;;;4.50;3.70;;;;;;;-141.97;48.97;47513.31;4905567;29;20348;-83
2022/09/20 06:44:38;;;;;;;5.03;3.60;;;;;;;-141.97;48.86;47482.56;4931790;29;20706;-82
2022/09/20 06:47:07;;;;;;;6.17;4.23;;;;;;;-141.97;49.19;47521.00;4914912;29;20194;-83
2022/09/20 06:49:34;;;;;;;7.03;5.07;;;;;;;-141.97;49.13;47524.84;4915256;29;20194;-83
2022/09/20 06:52:03;;;;;;;6.73;4.50;;;;;;;-141.97;48.83;47559.44;4915480;29;20178;-84
2022/09/20 06:54:28;;;;;;;7.97;5.10;;;;;;;-141.97;47.96;47513.31;4916272;29;20594;-83
2022/09/20 06:56:54;;;;;;;6.77;3.63;;;;;;;-141.97;48.01;47426.81;4915977;29;20198;-83
2022/09/20 06:59:19;;;;;;;5.33;3.77;;;;;;;-141.97;46.96;47373.00;4915966;29;20185;-82
2022/09/20 07:01:45;;;;;;;3.67;3.37;;;;;;;-141.97;46.15;47446.03;4914326;29;20202;-83
2022/09/20 07:04:10;;;;;;;5.90;4.07;;;;;;;-141.97;46.34;47630.56;4914118;29;20694;-82
2022/09/20 07:06:36;;;;;;;4.27;3.27;;;;;;;-141.97;45.14;47540.22;4916261;29;20826;-82
2022/09/20 07:09:03;;;;;;;5.93;4.00;;;;;;;-141.97;45.42;47565.22;4920611;29;20197;-83
2022/09/20 07:11:28;;;;;;;3.93;3.07;;;;;;;-141.97;44.52;47515.22;4954320;29;20179;-84
2022/09/20 07:13:57;;;;;;;6.40;3.30;;;;;;;-141.97;44.12;47561.38;5013831;28;20289;-84
2022/09/20 07:16:23;;;;;;;4.03;3.43;;;;;;;-141.97;43.71;47521.00;5029780;28;20228;-84
2022/09/20 07:18:51;;;;;;;5.70;3.87;;;;;;;-141.97;44.08;47526.75;5013852;28;20655;-84
2022/09/20 07:21:18;;;;;;;4.37;3.57;;;;;;;-141.97;43.91;47505.63;5013924;28;20162;-84
2022/09/20 07:23:47;;;;;;;3.50;3.17;;;;;;;-141.97;44.02;47509.47;5012909;28;20268;-82
2022/09/20 07:26:25;;;;;;;4.57;3.30;;;;;;;-141.97;44.76;47488.31;5012907;28;20179;-83
2022/09/20 07:28:51;;;;;;;3.93;3.07;;;;;;;-141.97;43.67;47482.56;5033711;28;20229;-83
2022/09/20 07:31:18;;;;;;;3.87;2.70;;;;;;;-141.97;43.24;47561.38;5023325;28;20175;-83
2022/09/20 07:33:43;;;;;;;3.37;2.50;;;;;;;-141.97;42.37;47453.72;5012877;28;20206;-84
2022/09/20 07:36:11;;;;;;;5.40;3.10;;;;;;;-141.97;42.28;47515.22;5013267;28;20257;-84
2022/09/20 07:38:36;;;;;;;3.87;2.63;;;;;;;-141.97;42.32;47574.81;5011770;28;20274;-83
2022/09/20 07:41:02;;;;;;;3.83;2.87;;;;;;;-141.97;41.73;47492.16;5002144;28;20654;-84
2022/09/20 07:43:29;;;;;;;2.70;2.50;;;;;;;-141.97;41.77;47540.22;5013520;28;20175;-83
2022/09/20 07:45:55;;;;;;;2.90;2.60;;;;;;;-141.97;41.30;47546.00;5012713;28;20198;-84
2022/09/20 07:48:29;;;;;;;3.33;2.70;;;;;;;-141.97;41.90;47494.09;5012420;28;20163;-84
2022/09/20 07:50:57;;;;;;;4.27;2.80;;;;;;;-141.97;41.70;47496.00;5012474;28;20271;-82
2022/09/20 07:53:23;;;;;;;3.37;2.93;;;;;;;-141.97;41.13;47409.53;5012455;28;20202;-83
2022/09/20 07:56:17;;;;;;;4.00;3.07;;;;;;;-141.97;40.82;47492.16;5012254;28;20256;-83
2022/09/20 07:58:51;;;;;;;6.10;2.30;;;;;;;-141.97;40.66;47538.28;4971141;28;20219;-84
2022/09/20 08:01:18;;;;;;;4.40;2.50;;;;;;;-141.97;40.49;47511.38;4973566;28;20266;-83
2022/09/20 08:03:44;;;;;;;2.87;2.30;;;;;;;-141.97;40.10;47513.31;4970302;28;20631;-83
2022/09/20 08:06:15;;;;;;;2.50;2.30;;;;;;;-141.97;40.23;47521.00;4971571;28;20187;-83
2022/09/20 08:08:41;;;;;;;4.10;2.40;;;;;;;-141.97;40.08;47507.53;4955546;28;20270;-83
2022/09/20 08:11:12;;;;;;;4.50;2.60;;;;;;;-141.97;39.98;47538.28;4954171;28;20589;-82
2022/09/20 08:13:42;;;;;;;3.10;2.30;;;;;;;-141.97;39.64;47672.84;4969591;28;20215;-83
2022/09/20 08:16:38;;;;;;;2.97;2.20;;;;;;;-141.97;40.05;47530.59;4970303;28;20224;-84
2022/09/20 08:19:04;;;;;;;2.57;2.37;;;;;;;-141.97;39.41;47544.06;4951829;29;20689;-82
2022/09/20 08:21:31;;;;;;;5.37;2.77;;;;;;;-141.97;39.72;47536.38;4953818;28;20188;-83
2022/09/20 08:23:58;;;;;;;6.17;2.43;;;;;;;-141.97;39.59;47461.41;4956299;28;20212;-83
2022/09/20 08:26:25;;;;;;;3.50;2.10;;;;;;;-141.97;39.11;47438.34;4952153;29;20323;-83
2022/09/20 08:28:53;;;;;;;2.80;2.20;;;;;;;-141.97;38.81;47480.63;4951398;29;20188;-83
2022/09/20 08:31:21;;;;;;;2.50;2.10;;;;;;;-141.97;38.50;47505.63;4952280;28;20287;-83
2022/09/20 08:33:49;;;;;;;3.07;2.23;;;;;;;-141.97;38.46;47519.06;4957892;28;20570;-84
2022/09/20 08:36:18;;;;;;;3.70;2.13;;;;;;;-141.97;37.64;47476.78;4967101;28;20183;-83
2022/09/20 08:38:43;;;;;;;3.50;1.90;;;;;;;-141.97;37.13;47494.09;4971059;28;20707;-83
2022/09/20 08:41:10;;;;;;;1.90;1.70;;;;;;;-141.97;37.50;47484.47;4961894;28;20231;-85
2022/09/20 08:43:39;;;;;;;2.90;1.77;;;;;;;-141.97;36.79;47521.00;4969987;28;20440;-83
2022/09/20 08:46:12;;;;;;;2.00;1.80;;;;;;;-141.97;35.94;47534.44;4970673;28;20246;-82
2022/09/20 08:48:38;;;;;;;2.30;1.53;;;;;;;-141.97;35.37;47486.41;4970861;28;20647;-83
2022/09/20 08:51:07;;;;;;;1.77;1.50;;;;;;;-141.97;35.22;47484.47;4974051;28;20171;-83
2022/09/20 08:53:33;;;;;;;4.50;1.57;;;;;;;-141.97;34.88;47482.56;4974371;28;20196;-83
2022/09/20 08:56:00;;;;;;;2.30;1.50;;;;;;;-141.97;34.39;47438.34;5005267;28;20550;-82
2022/09/20 08:58:26;;;;;;;3.10;1.20;;;;;;;-141.97;34.07;47357.63;5015107;28;20277;-80
2022/09/20 09:00:54;;;;;;;5.57;1.63;;;;;;;-141.97;34.48;47355.72;5016293;28;20177;-82
2022/09/20 09:03:20;;;;;;;5.40;1.47;;;;;;;-141.97;34.19;47280.75;5015418;28;20175;-83
2022/09/20 09:05:49;;;;;;;1.53;1.23;;;;;;;-141.97;33.82;47467.19;5015464;28;20258;-82
2022/09/20 09:08:20;;;;;;;3.40;1.40;;;;;;;-141.97;33.74;47505.63;5015735;28;20761;-83
2022/09/20 09:10:58;;;;;;;5.17;1.83;;;;;;;-141.97;33.83;47471.03;5015807;28;20170;-81
2022/09/20 09:13:51;;;;;;;1.70;1.40;;;;;;;-141.97;34.39;47469.09;5014692;28;21034;-82
2022/09/20 09:16:18;;;;;;;4.43;1.20;;;;;;;-141.97;34.08;47438.34;5014886;28;20637;-82
2022/09/20 09:18:45;;;;;;;5.13;1.30;;;;;;;-141.97;34.23;47461.41;5015487;28;20252;-84
2022/09/20 09:21:22;;;;;;;2.50;1.37;;;;;;;-141.97;34.33;47492.16;5015861;28;20162;-82
2022/09/20 09:23:57;;;;;;;1.70;1.20;;;;;;;-141.97;33.66;47455.66;5015351;28;20633;-81
2022/09/20 09:26:23;;;;;;;3.53;2.00;;;;;;;-141.97;33.68;47459.50;5015327;28;20166;-82
2022/09/20 09:29:13;;;;;;;3.30;1.70;;;;;;;-141.97;33.32;47457.56;5016283;28;20175;-84
2022/09/20 09:31:39;;;;;;;3.53;1.60;;;;;;;-141.97;33.44;47457.56;5015501;28;20202;-83
2022/09/20 09:34:21;;;;;;;5.23;1.70;;;;;;;-141.97;33.20;47490.25;5015205;28;20278;-83
2022/09/20 09:36:47;;;;;;;2.27;1.70;;;;;;;-141.97;33.43;47471.03;5014242;28;20748;-82
2022/09/20 09:39:23;;;;;;;1.63;1.40;;;;;;;-141.97;33.03;47484.47;5014666;28;20195;-82
2022/09/20 09:41:49;;;;;;;2.60;1.90;;;;;;;-141.97;33.17;47501.78;5006231;28;20233;-84
2022/09/20 09:44:26;;;;;;;3.43;1.20;;;;;;;-141.97;33.72;47469.09;5014540;28;20177;-83
2022/09/20 09:46:53;;;;;;;1.93;1.30;;;;;;;-141.97;33.98;47457.56;5016121;28;20654;-83
2022/09/20 09:49:32;;;;;;;2.67;1.50;;;;;;;-141.97;33.78;47511.38;5016023;28;20167;-83
2022/09/20 09:52:12;;;;;;;4.20;1.83;;;;;;;-141.97;33.69;47496.00;5014844;28;20217;-84
2022/09/20 09:54:45;;;;;;;1.30;1.20;;;;;;;-141.97;33.46;47440.28;5014570;28;20167;-83
2022/09/20 09:57:32;;;;;;;1.13;1.03;;;;;;;-141.97;33.82;47492.16;5014339;28;20170;-82
2022/09/20 10:00:12;;;;;;;1.83;1.10;;;;;;;-141.97;33.66;47499.84;5014456;28;20170;-82
2022/09/20 10:03:00;;;;;;;1.10;1.07;;;;;;;-141.97;34.21;47436.44;5013772;28;20169;-82
2022/09/20 10:05:31;;;;;;;2.90;1.50;;;;;;;-141.97;33.43;47469.09;5013941;28;20195;-82
2022/09/20 10:08:15;;;;;;;5.17;1.30;;;;;;;-141.97;33.04;47496.00;5013288;28;20220;-82
2022/09/20 10:11:17;;;;;;;4.00;1.33;;;;;;;-141.97;32.71;47426.81;5014757;28;20171;-82
2022/09/20 10:13:48;;;;;;;3.20;1.30;;;;;;;-141.97;32.30;47480.63;5010444;28;20670;-83
2022/09/20 10:16:35;;;;;;;3.30;1.40;;;;;;;-141.97;32.77;47488.31;5012512;28;20229;-87
2022/09/20 10:19:23;;;;;;;3.47;1.80;;;;;;;-141.97;32.10;47453.72;5013379;28;20209;-83
2022/09/20 10:22:08;;;;;;;1.73;1.13;;;;;;;-141.97;32.49;47488.31;5012643;28;20221;-83
2022/09/20 10:25:02;;;;;;;1.90;1.20;;;;;;;-141.97;33.32;47469.09;5013358;28;20266;-83
2022/09/20 10:27:36;;;;;;;5.10;1.20;;;;;;;-141.97;33.46;47469.09;5012315;28;20757;-83
2022/09/20 10:30:18;;;;;;;1.63;1.10;;;;;;;-141.97;32.74;47426.81;5012539;28;20182;-83
2022/09/20 10:33:15;;;;;;;1.23;1.10;;;;;;;-141.97;32.45;47436.44;5013287;28;20591;-85
2022/09/20 10:35:51;;;;;;;1.20;1.10;;;;;;;-141.97;32.76;47465.25;5012483;28;20261;-83
2022/09/20 10:38:22;;;;;;;1.60;1.30;;;;;;;-141.97;33.31;47449.88;5012341;28;20202;-82
2022/09/20 10:43:53;;;;;;;1.80;1.20;;;;;;;-141.97;32.80;47467.19;5013583;28;20206;-82
2022/09/20 10:46:21;;;;;;;1.93;1.20;;;;;;;-141.97;32.83;47438.34;5013518;28;20197;-81
2022/09/20 10:48:54;;;;;;;1.20;1.10;;;;;;;-141.97;33.26;47484.47;5012917;28;20194;-83
2022/09/20 10:51:29;;;;;;;2.27;1.20;;;;;;;-141.97;32.57;47463.34;5014336;28;20590;-84
2022/09/20 10:54:13;;;;;;;1.10;1.00;;;;;;;-141.97;32.31;47488.31;5013776;28;20177;-82
2022/09/20 10:56:49;;;;;;;1.33;0.93;;;;;;;-141.97;32.68;47415.28;5017761;28;20175;-83
2022/09/20 10:59:50;;;;;;;1.30;0.97;;;;;;;-141.97;32.98;47449.88;5014888;28;20202;-84
2022/09/20 11:02:51;;;;;;;4.20;1.20;;;;;;;-141.97;32.88;47474.88;5014283;28;20237;-83
2022/09/20 11:05:23;;;;;;;2.43;1.10;;;;;;;-141.97;32.54;47478.72;5013125;28;20167;-81
2022/09/20 11:08:17;;;;;;;1.00;0.90;;;;;;;-141.97;32.97;47451.81;5013238;28;20674;-83
2022/09/20 11:10:51;;;;;;;10.67;1.23;;;;;;;-141.97;33.72;47484.47;5000703;28;20245;-83
2022/09/20 11:13:26;;;;;;;6.40;1.60;;;;;;;-141.97;33.25;47488.31;5012345;28;20166;-82
2022/09/20 11:16:05;;;;;;;1.77;1.00;;;;;;;-141.97;32.33;47603.66;5012595;28;20226;-82
2022/09/20 11:18:31;;;;;;;8.37;1.50;;;;;;;-141.97;32.43;47488.31;5013118;28;20198;-82
2022/09/20 11:21:12;;;;;;;2.03;1.10;;;;;;;-141.97;32.50;47480.63;5012844;28;20170;-81
2022/09/20 11:24:02;;;;;;;1.40;1.00;;;;;;;-141.97;32.41;47494.09;5011459;28;20183;-82
2022/09/20 11:26:35;;;;;;;6.40;1.50;;;;;;;-141.97;31.76;47449.88;5011627;28;20685;-82
2022/09/20 11:29:13;;;;;;;8.47;1.67;;;;;;;-141.97;31.77;47471.03;5012958;28;20255;-82
2022/09/20 11:31:44;;;;;;;2.53;1.00;;;;;;;-141.97;31.57;47430.66;5013236;28;20168;-82
2022/09/20 11:34:27;;;;;;;1.63;0.90;;;;;;;-141.97;31.95;47447.97;5012461;28;20184;-83
2022/09/20 11:37:02;;;;;;;1.47;1.00;;;;;;;-141.97;32.36;47471.03;5027649;28;20248;-81
2022/09/20 11:39:28;;;;;;;1.17;0.90;;;;;;;-141.97;32.20;47465.25;5013167;28;20202;-81
2022/09/20 11:41:55;;;;;;;6.47;1.40;;;;;;;-141.97;31.57;47472.94;5003430;28;20235;-81
2022/09/20 11:44:21;;;;;;;1.23;1.13;;;;;;;-141.97;31.11;47422.97;5011963;28;20178;-80
2022/09/20 11:46:52;;;;;;;1.13;1.00;;;;;;;-141.97;31.69;47453.72;5013275;28;20546;-81
2022/09/20 11:49:36;;;;;;;0.83;0.80;;;;;;;-141.97;31.44;47478.72;5012871;28;20159;-82
2022/09/20 11:52:24;;;;;;;2.87;1.30;;;;;;;-141.97;30.54;47496.00;5012624;28;20178;-83
2022/09/20 11:55:15;;;;;;;1.17;0.80;;;;;;;-141.97;30.89;47444.13;5012256;28;20171;-81
2022/09/20 11:57:43;;;;;;;1.10;0.90;;;;;;;-141.97;30.57;47467.19;5012668;28;20186;-81
2022/09/20 12:00:09;;;;;;;1.23;0.93;;;;;;;-141.97;31.09;47471.03;5013574;28;20170;-82
2022/09/20 12:02:52;;;;;;;3.07;1.33;;;;;;;-141.97;30.78;47467.19;5012379;28;20636;-82
2022/09/20 12:05:26;;;;;;;1.00;0.90;;;;;;;-141.97;30.20;47432.59;5012182;28;20257;-82
2022/09/20 12:07:55;;;;;;;2.50;2.07;;;;;;;-141.97;30.51;47426.81;5012359;28;20174;-81
2022/09/20 12:10:36;;;;;;;1.73;0.90;;;;;;;-141.97;30.83;47411.44;5011070;28;20209;-79
2022/09/20 12:13:05;;;;;;;2.87;1.10;;;;;;;-141.97;29.80;47436.44;4999207;28;20232;-80
2022/09/20 12:15:40;;;;;;;1.37;0.90;;;;;;;-141.97;29.93;47430.66;5011689;28;20190;-82
2022/09/20 12:18:07;;;;;;;1.10;1.00;;;;;;;-141.97;29.00;47457.56;5010613;28;20678;-83